Mont Saint Michel — FNMT — position and weather

sailwx.info

Track history (hours):
 
Tides and Currents Weather Stations Pressure Air Temp Water Temp Dewpoint Dewpoint Depression Visibility Wind Speed Wind Dir Waves Ship Positions

Mont Saint Michel

Last reported at 2020-Jul-02 14:30 UTC. Time now 2020-Jul-02 16:33 UTC.
Position N 50°48' W 001°07'.

Length 173 m; beam 29 m.

Type: Ship. MMSI: 227023100.

Date/timePositionNaut miles runAvg speedWind from/ knotsBaromVisibWave heightAir tempDewpointWater temp
2020-Jul-02 14:30N 50°48' W 001°07'5710.7
2020-Jul-02 09:13N 49°56' W 000°34'418.6
2020-Jul-02 09:00N 49°52' W 000°32'3614.6
2020-Jul-02 06:30N 49°17' W 000°15'10 3.9
2020-Jul-02 04:00N 49°27' W 000°17'611.8
2020-Jul-02 03:30N 49°32' W 000°21'1312.5
2020-Jul-02 02:30N 49°43' W 000°30'69 8.6
2020-Jul-01 18:31N 50°48' W 001°07'7715.4
2020-Jul-01 13:30N 49°36' W 000°25'17 2.2
2020-Jul-01 05:30N 49°20' W 000°14'2013.3
2020-Jul-01 04:00N 49°39' W 000°24'6114.1
2020-Jun-30 23:39N 50°37' W 000°58'13 6.0
2020-Jun-30 21:31N 50°49' W 001°06'4412.3
2020-Jun-30 17:57N 50°08' W 000°41'819.4
2020-Jun-30 17:30N 49°60' W 000°36'2019.6
2020-Jun-30 16:30N 49°41' W 000°27'1919.3
2020-Jun-30 15:30N 49°23' W 000°16'6 6.1
2020-Jun-30 14:31N 49°17' W 000°15'0 0.0
2020-Jun-30 13:30N 49°17' W 000°15'14 9.4
2020-Jun-30 12:00N 49°31' W 000°20'8318.4
2020-Jun-30 07:30N 50°48' W 001°07'1 0.9
2020-Jun-30 06:30N 50°49' W 001°06'6811.3
2020-Jun-30 00:30N 49°45' W 000°29'1811.8
2020-Jun-29 23:00N 49°29' W 000°20'611.7
2020-Jun-29 22:30N 49°23' W 000°16'6 6.0
2020-Jun-29 21:30N 49°17' W 000°15'9712.9
2020-Jun-29 14:01N 50°49' W 001°06'0 0.0
2020-Jun-29 13:30N 50°49' W 001°06'9114.0
2020-Jun-29 07:00N 49°24' W 000°17'6 4.2
2020-Jun-29 05:30N 49°17' W 000°15'0 0.1
2020-Jun-29 04:31N 49°17' W 000°15'8814.7
2020-Jun-28 22:29N 50°41' W 000°58'613.8
2020-Jun-28 22:01N 50°46' W 001°05'3 6.0
2020-Jun-28 21:30N 50°49' W 001°06'9413.5
2020-Jun-28 14:30N 49°20' W 000°14'3 2.8
2020-Jun-28 13:30N 49°17' W 000°15'12 7.9
2020-Jun-28 12:01N 49°29' W 000°19'8017.8
2020-Jun-28 07:30N 50°44' W 001°04'2 0.8
2020-Jun-28 05:00N 50°45' W 001°05'7011.7
2020-Jun-27 23:00N 49°40' W 000°23'510.6
2020-Jun-27 22:30N 49°35' W 000°20'18 6.1
2020-Jun-27 19:30N 49°17' W 000°15'2 4.1
2020-Jun-27 19:00N 49°19' W 000°15'9318.5
2020-Jun-27 14:01N 50°46' W 001°06'3 5.2
2020-Jun-27 13:31N 50°49' W 001°06'4911.0
2020-Jun-27 09:02N 50°01' W 000°44'2019.0
2020-Jun-27 08:00N 49°43' W 000°33'1019.1
2020-Jun-27 07:31N 49°34' W 000°27'1912.5
2020-Jun-27 06:01N 49°17' W 000°15'30 8.5
2020-Jun-27 02:30N 49°46' W 000°29'815.4
2020-Jun-27 02:00N 49°53' W 000°33'4914.7
2020-Jun-26 22:41N 50°39' W 000°59'11 6.5
2020-Jun-26 20:59N 50°49' W 001°06'0 0.0
2020-Jun-26 20:29N 50°49' W 001°06'7015.6
2020-Jun-26 16:00N 49°43' W 000°26'2713.5
2020-Jun-26 14:00N 49°17' W 000°15'0 0.0
2020-Jun-26 13:01N 49°17' W 000°15'3 6.0
2020-Jun-26 12:31N 49°20' W 000°14'918.2
2020-Jun-26 12:00N 49°29' W 000°20'1019.6
2020-Jun-26 11:30N 49°38' W 000°26'1019.8
2020-Jun-26 11:00N 49°47' W 000°31'5718.9
2020-Jun-26 08:00N 50°41' W 000°59'715.0
2020-Jun-26 07:30N 50°47' W 001°06'2 4.0
2020-Jun-26 07:00N 50°49' W 001°06'0 0.0
2020-Jun-26 06:00N 50°49' W 001°06'0 0.2
2020-Jun-26 05:31N 50°49' W 001°06'6012.0
2020-Jun-26 00:30N 49°52' W 000°33'37 8.2
2020-Jun-25 20:00N 49°17' W 000°15'3 3.2
2020-Jun-25 19:00N 49°21' W 000°15'1918.8
2020-Jun-25 18:00N 49°39' W 000°22'6718.0
2020-Jun-25 14:16N 50°41' W 001°01'8 6.4
2020-Jun-25 13:00N 50°49' W 001°06'0 0.0
2020-Jun-25 12:30N 50°49' W 001°06'0 0.1
2020-Jun-25 12:00N 50°49' W 001°06'4 8.4
2020-Jun-25 11:31N 50°45' W 001°05'3919.0
2020-Jun-25 09:26N 50°08' W 000°42'1819.0
2020-Jun-25 08:30N 49°51' W 000°34'3610.3
2020-Jun-25 05:00N 49°17' W 000°15'7 7.0
2020-Jun-25 04:01N 49°24' W 000°17'1110.6
2020-Jun-25 03:01N 49°34' W 000°24'1110.6
2020-Jun-25 02:00N 49°44' W 000°29'511.0
2020-Jun-25 01:30N 49°49' W 000°31'1811.7
2020-Jun-25 00:00N 50°06' W 000°40'4314.5
2020-Jun-24 21:00N 50°46' W 001°06'2 1.0
2020-Jun-24 18:30N 50°49' W 001°06'6013.3
2020-Jun-24 14:00N 49°53' W 000°31'3617.9
2020-Jun-24 12:00N 49°19' W 000°15'2 3.4
2020-Jun-24 11:30N 49°17' W 000°15'0 0.0
2020-Jun-24 10:00N 49°17' W 000°15'0 0.0
2020-Jun-24 07:00N 49°17' W 000°15'0 0.0
2020-Jun-24 06:00N 49°17' W 000°15'13 6.7
2020-Jun-24 04:00N 49°30' W 000°19'1212.3
2020-Jun-24 03:00N 49°42' W 000°26'713.7
2020-Jun-24 02:30N 49°48' W 000°31'2113.9
2020-Jun-24 01:00N 50°07' W 000°43'4214.2
2020-Jun-23 22:00N 50°47' W 001°06'2 3.1
2020-Jun-23 21:30N 50°49' W 001°06'9712.1
2020-Jun-23 13:30N 49°17' W 000°15'3012.1
2020-Jun-23 11:01N 49°46' W 000°29'918.7
2020-Jun-23 10:31N 49°55' W 000°34'918.7
2020-Jun-23 10:00N 50°04' W 000°38'1218.8
2020-Jun-23 09:21N 50°15' W 000°45'2318.8
2020-Jun-23 08:06N 50°37' W 000°58'13 4.8
2020-Jun-23 05:30N 50°49' W 001°07'510.6
2020-Jun-23 05:00N 50°44' W 001°03'4612.3
2020-Jun-23 01:17N 50°02' W 000°35'2011.4
2020-Jun-22 23:30N 49°43' W 000°25'2210.8
2020-Jun-22 21:30N 49°22' W 000°15'5 9.2
2020-Jun-22 21:01N 49°17' W 000°15'0 0.1
2020-Jun-22 20:31N 49°17' W 000°15'0 0.0
2020-Jun-22 20:01N 49°17' W 000°15'  
Track history (hours):
 
Tides and Currents Weather Stations Pressure Air Temp Water Temp Dewpoint Dewpoint Depression Visibility Wind Speed Wind Dir Waves Ship Positions

Mont Saint Michel

Last reported at 2020-Jul-02 14:30 UTC. Time now 2020-Jul-02 16:33 UTC.
Position N 50°48' W 001°07'.

Length 173 m; beam 29 m.

Type: Ship. MMSI: 227023100.

Date/timePositionNaut miles runAvg speedWind from/ knotsBaromVisibWave heightAir tempDewpointWater temp
2020-Jul-02 14:30N 50°48' W 001°07'5710.7
2020-Jul-02 09:13N 49°56' W 000°34'418.6
2020-Jul-02 09:00N 49°52' W 000°32'3614.6
2020-Jul-02 06:30N 49°17' W 000°15'10 3.9
2020-Jul-02 04:00N 49°27' W 000°17'611.8
2020-Jul-02 03:30N 49°32' W 000°21'1312.5
2020-Jul-02 02:30N 49°43' W 000°30'69 8.6
2020-Jul-01 18:31N 50°48' W 001°07'7715.4
2020-Jul-01 13:30N 49°36' W 000°25'17 2.2
2020-Jul-01 05:30N 49°20' W 000°14'2013.3
2020-Jul-01 04:00N 49°39' W 000°24'6114.1
2020-Jun-30 23:39N 50°37' W 000°58'13 6.0
2020-Jun-30 21:31N 50°49' W 001°06'4412.3
2020-Jun-30 17:57N 50°08' W 000°41'819.4
2020-Jun-30 17:30N 49°60' W 000°36'2019.6
2020-Jun-30 16:30N 49°41' W 000°27'1919.3
2020-Jun-30 15:30N 49°23' W 000°16'6 6.1
2020-Jun-30 14:31N 49°17' W 000°15'0 0.0
2020-Jun-30 13:30N 49°17' W 000°15'14 9.4
2020-Jun-30 12:00N 49°31' W 000°20'8318.4
2020-Jun-30 07:30N 50°48' W 001°07'1 0.9
2020-Jun-30 06:30N 50°49' W 001°06'6811.3
2020-Jun-30 00:30N 49°45' W 000°29'1811.8
2020-Jun-29 23:00N 49°29' W 000°20'611.7
2020-Jun-29 22:30N 49°23' W 000°16'6 6.0
2020-Jun-29 21:30N 49°17' W 000°15'9712.9
2020-Jun-29 14:01N 50°49' W 001°06'0 0.0
2020-Jun-29 13:30N 50°49' W 001°06'9114.0
2020-Jun-29 07:00N 49°24' W 000°17'6 4.2
2020-Jun-29 05:30N 49°17' W 000°15'0 0.1
2020-Jun-29 04:31N 49°17' W 000°15'8814.7
2020-Jun-28 22:29N 50°41' W 000°58'613.8
2020-Jun-28 22:01N 50°46' W 001°05'3 6.0
2020-Jun-28 21:30N 50°49' W 001°06'9413.5
2020-Jun-28 14:30N 49°20' W 000°14'3 2.8
2020-Jun-28 13:30N 49°17' W 000°15'12 7.9
2020-Jun-28 12:01N 49°29' W 000°19'8017.8
2020-Jun-28 07:30N 50°44' W 001°04'2 0.8
2020-Jun-28 05:00N 50°45' W 001°05'7011.7
2020-Jun-27 23:00N 49°40' W 000°23'510.6
2020-Jun-27 22:30N 49°35' W 000°20'18 6.1
2020-Jun-27 19:30N 49°17' W 000°15'2 4.1
2020-Jun-27 19:00N 49°19' W 000°15'9318.5
2020-Jun-27 14:01N 50°46' W 001°06'3 5.2
2020-Jun-27 13:31N 50°49' W 001°06'4911.0
2020-Jun-27 09:02N 50°01' W 000°44'2019.0
2020-Jun-27 08:00N 49°43' W 000°33'1019.1
2020-Jun-27 07:31N 49°34' W 000°27'1912.5
2020-Jun-27 06:01N 49°17' W 000°15'30 8.5
2020-Jun-27 02:30N 49°46' W 000°29'815.4
2020-Jun-27 02:00N 49°53' W 000°33'4914.7
2020-Jun-26 22:41N 50°39' W 000°59'11 6.5
2020-Jun-26 20:59N 50°49' W 001°06'0 0.0
2020-Jun-26 20:29N 50°49' W 001°06'7015.6
2020-Jun-26 16:00N 49°43' W 000°26'2713.5
2020-Jun-26 14:00N 49°17' W 000°15'0 0.0
2020-Jun-26 13:01N 49°17' W 000°15'3 6.0
2020-Jun-26 12:31N 49°20' W 000°14'918.2
2020-Jun-26 12:00N 49°29' W 000°20'1019.6
2020-Jun-26 11:30N 49°38' W 000°26'1019.8
2020-Jun-26 11:00N 49°47' W 000°31'5718.9
2020-Jun-26 08:00N 50°41' W 000°59'715.0
2020-Jun-26 07:30N 50°47' W 001°06'2 4.0
2020-Jun-26 07:00N 50°49' W 001°06'0 0.0
2020-Jun-26 06:00N 50°49' W 001°06'0 0.2
2020-Jun-26 05:31N 50°49' W 001°06'6012.0
2020-Jun-26 00:30N 49°52' W 000°33'37 8.2
2020-Jun-25 20:00N 49°17' W 000°15'3 3.2
2020-Jun-25 19:00N 49°21' W 000°15'1918.8
2020-Jun-25 18:00N 49°39' W 000°22'6718.0
2020-Jun-25 14:16N 50°41' W 001°01'8 6.4
2020-Jun-25 13:00N 50°49' W 001°06'0 0.0
2020-Jun-25 12:30N 50°49' W 001°06'0 0.1
2020-Jun-25 12:00N 50°49' W 001°06'4 8.4
2020-Jun-25 11:31N 50°45' W 001°05'3919.0
2020-Jun-25 09:26N 50°08' W 000°42'1819.0
2020-Jun-25 08:30N 49°51' W 000°34'3610.3
2020-Jun-25 05:00N 49°17' W 000°15'7 7.0
2020-Jun-25 04:01N 49°24' W 000°17'1110.6
2020-Jun-25 03:01N 49°34' W 000°24'1110.6
2020-Jun-25 02:00N 49°44' W 000°29'511.0
2020-Jun-25 01:30N 49°49' W 000°31'1811.7
2020-Jun-25 00:00N 50°06' W 000°40'4314.5
2020-Jun-24 21:00N 50°46' W 001°06'2 1.0
2020-Jun-24 18:30N 50°49' W 001°06'6013.3
2020-Jun-24 14:00N 49°53' W 000°31'3617.9
2020-Jun-24 12:00N 49°19' W 000°15'2 3.4
2020-Jun-24 11:30N 49°17' W 000°15'0 0.0
2020-Jun-24 10:00N 49°17' W 000°15'0 0.0
2020-Jun-24 07:00N 49°17' W 000°15'0 0.0
2020-Jun-24 06:00N 49°17' W 000°15'13 6.7
2020-Jun-24 04:00N 49°30' W 000°19'1212.3
2020-Jun-24 03:00N 49°42' W 000°26'713.7
2020-Jun-24 02:30N 49°48' W 000°31'2113.9
2020-Jun-24 01:00N 50°07' W 000°43'4214.2
2020-Jun-23 22:00N 50°47' W 001°06'2 3.1
2020-Jun-23 21:30N 50°49' W 001°06'9712.1
2020-Jun-23 13:30N 49°17' W 000°15'3012.1
2020-Jun-23 11:01N 49°46' W 000°29'918.7
2020-Jun-23 10:31N 49°55' W 000°34'918.7
2020-Jun-23 10:00N 50°04' W 000°38'1218.8
2020-Jun-23 09:21N 50°15' W 000°45'2318.8
2020-Jun-23 08:06N 50°37' W 000°58'13 4.8
2020-Jun-23 05:30N 50°49' W 001°07'510.6
2020-Jun-23 05:00N 50°44' W 001°03'4612.3
2020-Jun-23 01:17N 50°02' W 000°35'2011.4
2020-Jun-22 23:30N 49°43' W 000°25'2210.8
2020-Jun-22 21:30N 49°22' W 000°15'5 9.2
2020-Jun-22 21:01N 49°17' W 000°15'0 0.1
2020-Jun-22 20:31N 49°17' W 000°15'0 0.0
2020-Jun-22 20:01N 49°17' W 000°15'  

Dump ship's entire track history